Time;durP1;ratioP1;P1;durP2;ratioP2;P2;SDS_P1;SDS_P2;PMS_P1;PMS_P2;Temp;Humidity;BMP_temperature;BMP_pressure;BME280_temperature;BME280_humidity;BME280_pressure;Samples;Min_cycle;Max_cycle;Signal;HPM_P1;HPM_P2
2022/04/10 00:01:38;;;;;;;11.57;2.90;;;5.60;99.90;;;;;;5019946;28;20065;-88
2022/04/10 00:04:04;;;;;;;10.93;3.03;;;5.60;99.90;;;;;;5013695;28;20110;-88
2022/04/10 00:06:30;;;;;;;11.23;2.97;;;5.50;99.90;;;;;;5029176;28;20046;-88
2022/04/10 00:08:56;;;;;;;11.98;3.10;;;5.50;99.90;;;;;;5026820;28;20369;-88
2022/04/10 00:11:22;;;;;;;12.05;2.67;;;5.40;99.90;;;;;;5046846;28;20109;-88
2022/04/10 00:13:48;;;;;;;10.98;2.80;;;5.50;99.90;;;;;;5029241;28;20033;-89
2022/04/10 00:16:14;;;;;;;12.80;2.80;;;5.40;99.90;;;;;;5011231;28;20032;-88
2022/04/10 00:18:40;;;;;;;11.02;3.15;;;5.40;99.90;;;;;;5008056;28;20045;-89
2022/04/10 00:21:06;;;;;;;11.82;2.85;;;5.40;99.90;;;;;;5005599;28;20038;-89
2022/04/10 00:23:32;;;;;;;11.63;2.83;;;5.40;99.90;;;;;;5020980;28;20010;-88
2022/04/10 00:25:58;;;;;;;8.15;2.55;;;5.40;99.90;;;;;;5016728;28;20025;-88
2022/04/10 00:28:24;;;;;;;13.10;3.42;;;5.40;99.90;;;;;;5000122;28;20612;-88
2022/04/10 00:30:49;;;;;;;9.73;2.97;;;5.40;99.90;;;;;;4999800;28;20433;-88
2022/04/10 00:33:15;;;;;;;12.25;3.45;;;5.30;99.90;;;;;;5002071;28;20030;-88
2022/04/10 00:35:41;;;;;;;13.57;3.20;;;5.30;99.90;;;;;;4988537;28;20028;-89
2022/04/10 00:38:07;;;;;;;10.27;2.78;;;5.30;99.90;;;;;;4988073;28;20362;-88
2022/04/10 00:40:32;;;;;;;9.80;3.30;;;5.30;99.90;;;;;;5022502;28;20057;-88
2022/04/10 00:42:58;;;;;;;7.38;2.70;;;5.30;99.90;;;;;;4991139;28;20359;-89
2022/04/10 00:45:24;;;;;;;8.35;2.63;;;5.30;99.90;;;;;;5008770;28;20081;-88
2022/04/10 00:47:50;;;;;;;8.82;2.80;;;5.30;99.90;;;;;;5007250;28;20022;-88
2022/04/10 00:50:18;;;;;;;13.43;3.28;;;5.30;99.90;;;;;;5006382;28;20080;-89
2022/04/10 00:52:46;;;;;;;8.75;3.20;;;5.30;99.90;;;;;;5016099;28;20084;-89
2022/04/10 00:55:12;;;;;;;12.75;3.00;;;5.30;99.90;;;;;;5003018;28;20054;-89
2022/04/10 00:57:38;;;;;;;6.97;2.15;;;5.30;99.90;;;;;;4982659;28;20511;-89
2022/04/10 01:00:09;;;;;;;8.15;2.60;;;5.30;99.90;;;;;;5014959;28;20025;-88
2022/04/10 01:02:36;;;;;;;10.77;2.65;;;5.30;99.90;;;;;;4998631;28;20033;-89
2022/04/10 01:05:04;;;;;;;11.98;3.05;;;5.30;99.90;;;;;;4983400;28;20034;-89
2022/04/10 01:07:30;;;;;;;8.85;2.42;;;5.20;99.90;;;;;;5014831;28;20022;-89
2022/04/10 01:09:56;;;;;;;7.35;2.90;;;5.20;99.90;;;;;;4982593;28;20022;-89
2022/04/10 01:12:23;;;;;;;9.63;2.72;;;5.20;99.90;;;;;;5014769;28;20037;-88
2022/04/10 01:14:51;;;;;;;10.05;2.70;;;5.10;99.90;;;;;;4998259;28;20030;-88
2022/04/10 01:17:17;;;;;;;11.57;2.65;;;5.10;99.90;;;;;;5014581;28;20022;-89
2022/04/10 01:19:43;;;;;;;12.25;3.28;;;5.10;99.90;;;;;;5014599;28;20469;-89
2022/04/10 01:22:16;;;;;;;10.48;2.95;;;5.10;99.90;;;;;;4998095;28;20037;-88
2022/04/10 01:24:43;;;;;;;7.15;3.05;;;5.10;99.90;;;;;;5014949;28;20020;-88
2022/04/10 01:27:09;;;;;;;10.68;2.75;;;5.10;99.90;;;;;;4999100;28;20026;-89
2022/04/10 01:29:34;;;;;;;14.38;2.72;;;5.00;99.90;;;;;;4982601;28;20083;-89
2022/04/10 01:32:00;;;;;;;8.35;2.40;;;5.10;99.90;;;;;;4999248;28;20045;-89
2022/04/10 01:34:26;;;;;;;10.65;2.80;;;5.00;99.90;;;;;;5016195;28;20465;-89
2022/04/10 01:36:52;;;;;;;8.18;3.20;;;4.90;99.90;;;;;;5017653;28;20030;-89
2022/04/10 01:39:18;;;;;;;12.63;2.70;;;4.90;99.90;;;;;;5028932;28;20026;-87
2022/04/10 01:41:47;;;;;;;11.43;2.90;;;4.90;99.90;;;;;;5019518;28;20029;-88
2022/04/10 01:44:13;;;;;;;10.98;2.92;;;4.80;99.90;;;;;;5014737;28;20024;-88
2022/04/10 01:46:39;;;;;;;12.10;3.22;;;4.80;99.90;;;;;;5027658;28;20639;-88
2022/04/10 01:49:06;;;;;;;10.32;4.15;;;4.80;99.90;;;;;;5015878;28;20063;-88
2022/04/10 01:51:33;;;;;;;13.23;3.33;;;4.80;99.90;;;;;;5015884;28;20030;-88
2022/04/10 01:53:59;;;;;;;13.98;3.40;;;4.70;99.90;;;;;;5015750;28;20384;-87
2022/04/10 01:56:25;;;;;;;18.95;4.30;;;4.80;99.90;;;;;;5015544;28;20156;-88
2022/04/10 01:58:52;;;;;;;10.90;3.75;;;4.70;99.90;;;;;;5015170;28;20116;-88
2022/04/10 02:01:18;;;;;;;13.38;3.05;;;4.70;99.90;;;;;;5015464;28;20026;-88
2022/04/10 02:03:46;;;;;;;13.18;3.33;;;4.70;99.90;;;;;;5014895;28;20021;-88
2022/04/10 02:06:13;;;;;;;12.00;3.47;;;4.70;99.90;;;;;;5015000;28;20033;-88
2022/04/10 02:08:41;;;;;;;12.93;3.90;;;4.70;99.90;;;;;;5015389;28;20028;-87
2022/04/10 02:11:16;;;;;;;10.95;3.20;;;4.70;99.90;;;;;;5015334;28;20010;-87
2022/04/10 02:13:43;;;;;;;16.10;4.07;;;4.70;99.90;;;;;;5014800;28;20029;-87
2022/04/10 02:16:16;;;;;;;13.43;3.78;;;4.70;99.90;;;;;;5014760;28;20033;-86
2022/04/10 02:18:42;;;;;;;11.60;3.60;;;4.70;99.90;;;;;;5013519;28;20468;-86
2022/04/10 02:21:08;;;;;;;12.93;3.58;;;4.60;99.90;;;;;;5014035;28;20014;-87
2022/04/10 02:23:34;;;;;;;12.90;3.70;;;4.60;99.90;;;;;;5014503;28;20029;-87
2022/04/10 02:26:01;;;;;;;13.07;3.83;;;4.60;99.90;;;;;;5014548;28;20473;-88
2022/04/10 02:28:27;;;;;;;11.75;3.97;;;4.50;99.90;;;;;;5014471;28;20547;-87
2022/04/10 02:30:52;;;;;;;12.57;4.13;;;4.50;99.90;;;;;;5015499;28;20022;-87
2022/04/10 02:33:18;;;;;;;15.63;4.07;;;4.50;99.90;;;;;;5013597;28;20493;-87
2022/04/10 02:35:44;;;;;;;9.50;3.58;;;4.50;99.90;;;;;;4997147;28;20026;-87
2022/04/10 02:38:10;;;;;;;12.55;3.38;;;4.50;99.90;;;;;;4997515;28;20092;-87
2022/04/10 02:40:36;;;;;;;11.95;3.65;;;4.50;99.90;;;;;;4981185;28;20028;-87
2022/04/10 02:43:02;;;;;;;10.23;3.60;;;4.50;99.90;;;;;;5013501;28;20034;-87
2022/04/10 02:45:28;;;;;;;12.80;4.15;;;4.50;99.90;;;;;;4997144;28;20492;-87
2022/04/10 02:47:54;;;;;;;14.68;4.93;;;4.50;99.90;;;;;;5015046;28;20108;-87
2022/04/10 02:50:19;;;;;;;12.25;3.80;;;4.50;99.90;;;;;;5015075;28;20046;-87
2022/04/10 02:52:45;;;;;;;12.20;4.10;;;4.40;99.90;;;;;;4998687;28;20103;-87
2022/04/10 02:55:12;;;;;;;12.95;4.13;;;4.40;99.90;;;;;;5014448;28;20037;-88
2022/04/10 02:57:38;;;;;;;13.00;4.00;;;4.40;99.90;;;;;;4998706;28;20058;-88
2022/04/10 03:00:05;;;;;;;13.27;4.28;;;4.40;99.90;;;;;;4999634;28;20033;-87
2022/04/10 03:02:31;;;;;;;15.75;4.47;;;4.40;99.90;;;;;;5021848;28;20041;-89
2022/04/10 03:04:57;;;;;;;15.60;4.20;;;4.40;99.90;;;;;;5006558;28;20018;-89
2022/04/10 03:07:23;;;;;;;13.23;4.35;;;4.30;99.90;;;;;;4995539;28;20021;-90
2022/04/10 03:09:48;;;;;;;10.85;4.35;;;4.30;99.90;;;;;;5019331;28;20098;-89
2022/04/10 03:12:14;;;;;;;14.15;5.45;;;4.30;99.90;;;;;;5004464;28;20022;-89
2022/04/10 03:14:40;;;;;;;10.00;4.38;;;4.30;99.90;;;;;;5021269;28;20026;-90
2022/04/10 03:17:06;;;;;;;11.20;3.95;;;4.30;99.90;;;;;;5021275;28;20039;-88
2022/04/10 03:19:31;;;;;;;10.80;4.60;;;4.30;99.90;;;;;;5019847;28;20022;-89
2022/04/10 03:21:57;;;;;;;12.55;3.88;;;4.30;99.90;;;;;;5003543;28;20072;-90
2022/04/10 03:24:22;;;;;;;10.90;4.10;;;4.20;99.90;;;;;;5019712;28;20034;-90
2022/04/10 03:26:48;;;;;;;12.25;4.18;;;4.20;99.90;;;;;;4998552;28;20136;-88
2022/04/10 03:29:14;;;;;;;12.45;4.43;;;4.20;99.90;;;;;;4982517;28;20030;-90
2022/04/10 03:31:39;;;;;;;15.75;4.93;;;4.20;99.90;;;;;;4999782;28;20026;-89
2022/04/10 03:34:05;;;;;;;10.23;4.28;;;4.20;99.90;;;;;;4985428;28;20069;-89
2022/04/10 03:36:31;;;;;;;15.77;4.82;;;4.20;99.90;;;;;;4984834;28;20030;-90
2022/04/10 03:38:57;;;;;;;16.42;5.43;;;4.20;99.90;;;;;;5001329;28;20569;-90
2022/04/10 03:41:22;;;;;;;12.65;4.65;;;4.20;99.90;;;;;;5001773;28;20033;-89
2022/04/10 03:43:48;;;;;;;11.43;4.78;;;4.20;99.90;;;;;;5002268;28;20029;-89
2022/04/10 03:46:13;;;;;;;13.98;4.55;;;4.20;99.90;;;;;;4998523;28;20053;-89
2022/04/10 03:48:39;;;;;;;14.50;5.50;;;4.20;99.90;;;;;;4994116;28;20076;-87
2022/04/10 03:51:05;;;;;;;15.13;4.68;;;4.20;99.90;;;;;;5018074;28;20105;-88
2022/04/10 03:53:33;;;;;;;11.38;4.32;;;4.10;99.90;;;;;;5002013;28;20033;-88
2022/04/10 03:55:59;;;;;;;17.10;4.75;;;4.10;99.90;;;;;;5017115;28;20026;-87
2022/04/10 03:58:24;;;;;;;15.30;4.53;;;4.10;99.90;;;;;;5000878;28;20507;-89
2022/04/10 04:00:51;;;;;;;15.85;5.43;;;4.10;99.90;;;;;;5000618;28;20053;-89
2022/04/10 04:03:16;;;;;;;11.77;4.20;;;4.10;99.90;;;;;;4983905;28;20030;-89
2022/04/10 04:05:42;;;;;;;9.98;4.00;;;4.00;99.90;;;;;;4984222;28;20121;-89
2022/04/10 04:08:08;;;;;;;16.77;4.05;;;4.00;99.90;;;;;;4983831;28;20049;-88
2022/04/10 04:10:34;;;;;;;13.50;4.28;;;4.00;99.90;;;;;;5000306;28;20030;-90
2022/04/10 04:13:00;;;;;;;13.05;4.70;;;4.00;99.90;;;;;;4984011;28;20030;-89
2022/04/10 04:15:26;;;;;;;12.52;4.32;;;3.90;99.90;;;;;;5001386;28;20075;-89
2022/04/10 04:17:52;;;;;;;10.07;3.92;;;3.90;99.90;;;;;;5017887;28;20028;-89
2022/04/10 04:20:17;;;;;;;11.73;4.13;;;3.90;99.90;;;;;;5001946;28;20025;-89
2022/04/10 04:22:43;;;;;;;11.50;4.15;;;3.90;99.90;;;;;;5019494;28;20385;-90
2022/04/10 04:25:09;;;;;;;15.15;4.55;;;3.90;99.90;;;;;;4994796;28;20045;-89
2022/04/10 04:27:35;;;;;;;9.40;4.15;;;3.80;99.90;;;;;;5017368;28;20036;-90
2022/04/10 04:30:01;;;;;;;15.23;4.28;;;3.80;99.90;;;;;;5032986;28;20097;-90
2022/04/10 04:32:27;;;;;;;13.45;3.97;;;3.80;99.90;;;;;;4989517;28;20049;-89
2022/04/10 04:34:53;;;;;;;9.55;3.70;;;3.80;99.90;;;;;;5015125;28;20049;-90
2022/04/10 04:37:18;;;;;;;15.63;5.78;;;3.80;99.90;;;;;;4991384;28;20477;-90
2022/04/10 04:39:44;;;;;;;14.00;4.80;;;3.80;99.90;;;;;;5023267;28;20014;-88
2022/04/10 04:42:10;;;;;;;10.70;3.53;;;3.70;99.90;;;;;;5000584;28;20149;-88
2022/04/10 04:44:35;;;;;;;16.00;3.92;;;3.70;99.90;;;;;;4990339;28;20094;-88
2022/04/10 04:47:01;;;;;;;12.75;3.80;;;3.70;99.90;;;;;;5021364;28;20095;-88
2022/04/10 04:49:27;;;;;;;15.57;5.22;;;3.70;99.90;;;;;;5023658;28;20026;-87
2022/04/10 04:51:53;;;;;;;13.10;3.88;;;3.70;99.90;;;;;;4988352;28;20053;-87
2022/04/10 04:54:19;;;;;;;14.55;3.95;;;3.70;99.90;;;;;;5000392;28;20041;-88
2022/04/10 04:56:44;;;;;;;11.45;4.88;;;3.60;99.90;;;;;;4983471;28;20037;-88
2022/04/10 04:59:12;;;;;;;11.25;4.88;;;3.60;99.90;;;;;;5023800;28;20033;-87
2022/04/10 05:01:41;;;;;;;9.25;3.72;;;3.60;99.90;;;;;;5013836;28;20050;-88
2022/04/10 05:04:07;;;;;;;8.70;4.20;;;3.60;99.90;;;;;;5014420;28;20093;-87
2022/04/10 05:06:32;;;;;;;12.43;5.20;;;3.60;99.90;;;;;;5026977;28;20037;-87
2022/04/10 05:08:58;;;;;;;14.82;4.10;;;3.60;99.90;;;;;;4988157;28;20417;-87
2022/04/10 05:11:24;;;;;;;14.68;3.88;;;3.60;99.90;;;;;;5001898;28;20117;-87
2022/04/10 05:13:49;;;;;;;14.18;4.20;;;3.60;99.90;;;;;;4982841;28;20029;-90
2022/04/10 05:16:15;;;;;;;13.00;3.63;;;3.60;99.90;;;;;;4983079;28;20034;-90
2022/04/10 05:18:41;;;;;;;11.95;4.40;;;3.50;99.90;;;;;;4999553;28;20033;-90
2022/04/10 05:21:07;;;;;;;11.05;3.90;;;3.50;99.90;;;;;;4982994;28;20492;-91
2022/04/10 05:23:33;;;;;;;10.77;3.78;;;3.50;99.90;;;;;;4982857;28;20022;-91
2022/04/10 05:25:59;;;;;;;11.98;3.95;;;3.50;99.90;;;;;;5015293;28;20018;-90
2022/04/10 05:28:25;;;;;;;17.08;5.65;;;3.50;99.90;;;;;;4982936;28;20033;-89
2022/04/10 05:30:50;;;;;;;10.95;4.07;;;3.50;99.90;;;;;;4999371;28;20048;-91
2022/04/10 05:33:16;;;;;;;12.82;3.72;;;3.50;99.90;;;;;;5002665;28;20171;-90
2022/04/10 05:35:42;;;;;;;13.18;4.45;;;3.60;99.90;;;;;;4986136;28;20026;-90
2022/04/10 05:38:08;;;;;;;10.77;3.75;;;3.50;99.90;;;;;;5019864;28;20117;-90
2022/04/10 05:40:34;;;;;;;10.13;3.72;;;3.50;99.90;;;;;;5002340;28;20021;-90
2022/04/10 05:43:00;;;;;;;18.90;6.50;;;3.50;99.90;;;;;;5002257;28;20084;-90
2022/04/10 05:45:26;;;;;;;18.33;9.40;;;3.50;99.90;;;;;;5001576;28;20045;-90
2022/04/10 05:47:52;;;;;;;16.55;7.20;;;3.60;99.90;;;;;;5015434;28;20159;-89
2022/04/10 05:50:18;;;;;;;16.25;7.53;;;3.50;99.90;;;;;;4999748;28;20022;-90
2022/04/10 05:52:46;;;;;;;19.48;6.95;;;3.60;99.90;;;;;;5021330;28;20033;-90
2022/04/10 05:55:14;;;;;;;13.50;6.15;;;3.60;99.90;;;;;;5027137;28;20101;-90
2022/04/10 05:57:41;;;;;;;15.23;4.72;;;3.60;99.90;;;;;;5006485;28;20424;-90
2022/04/10 06:00:10;;;;;;;11.80;4.75;;;3.60;99.90;;;;;;5031141;28;20112;-91
2022/04/10 06:02:37;;;;;;;16.60;5.88;;;3.70;99.90;;;;;;5013442;28;20045;-90
2022/04/10 06:05:03;;;;;;;14.30;6.07;;;3.70;99.90;;;;;;5016762;28;20116;-91
2022/04/10 06:07:29;;;;;;;16.20;8.02;;;3.70;99.90;;;;;;5019043;28;20029;-91
2022/04/10 06:09:55;;;;;;;16.95;6.60;;;3.70;99.90;;;;;;5019150;28;20026;-90
2022/04/10 06:12:20;;;;;;;10.23;5.20;;;3.80;99.90;;;;;;5019701;28;20098;-91
2022/04/10 06:14:46;;;;;;;16.27;6.63;;;3.80;99.90;;;;;;5003700;28;20022;-90
2022/04/10 06:17:12;;;;;;;14.98;7.30;;;3.90;99.90;;;;;;5021041;28;20025;-91
2022/04/10 06:19:37;;;;;;;16.42;7.20;;;3.90;99.90;;;;;;5004897;28;20041;-91
2022/04/10 06:22:03;;;;;;;13.20;5.63;;;3.90;99.90;;;;;;5004823;28;20090;-91
2022/04/10 06:24:30;;;;;;;12.65;5.00;;;4.00;99.90;;;;;;5021018;28;20088;-90
2022/04/10 06:26:56;;;;;;;12.45;5.10;;;4.00;99.90;;;;;;5005232;28;20002;-91
2022/04/10 06:29:22;;;;;;;12.95;4.55;;;4.00;99.90;;;;;;5021827;28;20042;-91
2022/04/10 06:31:48;;;;;;;10.25;4.57;;;4.10;99.90;;;;;;5021272;28;20018;-91
2022/04/10 06:34:15;;;;;;;14.98;4.55;;;4.10;99.90;;;;;;5021543;28;20021;-88
2022/04/10 06:36:41;;;;;;;13.85;4.65;;;4.20;99.90;;;;;;5004917;28;20048;-89
2022/04/10 06:39:07;;;;;;;12.48;5.18;;;4.20;99.90;;;;;;5020867;28;20025;-91
2022/04/10 06:41:33;;;;;;;10.10;4.80;;;4.20;99.90;;;;;;5035448;28;20053;-90
2022/04/10 06:43:59;;;;;;;10.88;4.60;;;4.30;99.90;;;;;;5027631;28;20022;-90
2022/04/10 06:46:26;;;;;;;10.38;4.60;;;4.40;99.90;;;;;;5021950;28;20040;-91
2022/04/10 06:48:52;;;;;;;13.65;4.63;;;4.40;99.90;;;;;;5017614;28;20050;-90
2022/04/10 06:51:18;;;;;;;16.70;4.53;;;4.50;99.90;;;;;;4999380;28;20026;-90
2022/04/10 06:53:44;;;;;;;13.02;4.32;;;4.50;99.90;;;;;;4999695;28;20458;-90
2022/04/10 06:56:10;;;;;;;9.73;4.30;;;4.60;99.90;;;;;;5033613;28;20033;-91
2022/04/10 06:58:36;;;;;;;9.25;3.97;;;4.70;99.90;;;;;;4992737;28;20050;-90
2022/04/10 07:01:02;;;;;;;10.38;3.80;;;4.80;99.90;;;;;;5008165;28;20036;-89
2022/04/10 07:03:28;;;;;;;9.57;3.72;;;4.80;99.90;;;;;;5034535;28;20038;-90
2022/04/10 07:05:54;;;;;;;10.98;3.58;;;4.90;99.90;;;;;;5020397;28;20030;-91
2022/04/10 07:08:19;;;;;;;11.70;3.10;;;5.00;99.90;;;;;;5002121;28;20044;-91
2022/04/10 07:10:45;;;;;;;11.50;2.70;;;5.00;99.90;;;;;;5002500;28;20149;-91
2022/04/10 07:13:14;;;;;;;7.95;2.65;;;5.10;99.90;;;;;;5027292;23;20045;-89
2022/04/10 07:15:41;;;;;;;9.85;2.60;;;5.10;99.90;;;;;;5020992;28;20140;-88
2022/04/10 07:18:07;;;;;;;13.13;3.72;;;5.20;99.90;;;;;;5004106;28;20026;-88
2022/04/10 07:20:33;;;;;;;11.55;2.38;;;5.10;99.90;;;;;;5003675;28;20028;-89
2022/04/10 07:25:43;;;;;;;7.88;2.20;;;5.30;99.90;;;;;;5036819;28;20136;-88
2022/04/10 07:28:09;;;;;;;6.45;1.67;;;5.40;99.90;;;;;;5020041;28;20037;-89
2022/04/10 07:30:34;;;;;;;8.40;1.90;;;5.40;99.90;;;;;;5003434;28;20021;-89
2022/04/10 07:33:00;;;;;;;5.70;1.50;;;5.50;99.90;;;;;;5003269;28;20388;-88
2022/04/10 07:35:26;;;;;;;5.10;1.30;;;5.50;99.90;;;;;;5035902;28;20068;-88
2022/04/10 07:37:52;;;;;;;2.97;1.20;;;5.60;99.90;;;;;;5035606;28;20049;-88
2022/04/10 07:40:21;;;;;;;6.20;1.30;;;5.60;99.90;;;;;;5015449;28;20100;-89
2022/04/10 07:42:47;;;;;;;4.28;1.52;;;5.60;99.90;;;;;;5005400;28;20026;-88
2022/04/10 07:47:25;;;;;;;5.80;1.42;;;5.70;99.90;;;;;;4998582;28;20037;-88
2022/04/10 07:47:59;;;;;;;4.63;1.50;;;5.70;99.90;;;;;;5015655;28;20513;-89
2022/04/10 07:50:26;;;;;;;6.18;1.38;;;5.70;99.90;;;;;;4999057;28;20041;-88
2022/04/10 07:52:52;;;;;;;4.07;1.40;;;5.80;99.90;;;;;;5015601;28;20030;-87
2022/04/10 07:55:18;;;;;;;4.18;1.50;;;5.80;99.90;;;;;;4999944;28;20477;-88
2022/04/10 07:57:44;;;;;;;4.90;1.30;;;5.90;99.90;;;;;;4999025;28;20041;-88
2022/04/10 08:00:11;;;;;;;3.75;1.40;;;6.00;99.90;;;;;;4983485;28;20499;-88
2022/04/10 08:02:42;;;;;;;3.60;1.30;;;6.10;99.90;;;;;;5015769;28;20420;-88
2022/04/10 08:05:08;;;;;;;6.97;1.42;;;6.20;99.90;;;;;;5016272;28;20034;-87
2022/04/10 08:07:33;;;;;;;4.47;1.00;;;6.30;99.90;;;;;;4999208;28;20025;-87
2022/04/10 08:10:00;;;;;;;7.20;1.25;;;6.40;99.90;;;;;;4999330;28;20096;-88
2022/04/10 08:12:27;;;;;;;6.40;1.33;;;6.50;99.90;;;;;;4983023;28;20050;-87
2022/04/10 08:14:53;;;;;;;4.47;1.20;;;6.60;99.90;;;;;;4999586;28;20037;-87
2022/04/10 08:17:18;;;;;;;5.03;1.70;;;6.60;99.90;;;;;;4998482;28;20030;-87
2022/04/10 08:19:44;;;;;;;6.53;1.27;;;6.80;99.90;;;;;;5015184;28;20078;-88
2022/04/10 08:22:10;;;;;;;5.25;1.60;;;6.90;99.90;;;;;;5015199;28;20117;-87
2022/04/10 08:24:36;;;;;;;3.83;1.30;;;7.00;99.90;;;;;;4989571;28;20240;-88
2022/04/10 08:27:03;;;;;;;5.15;1.35;;;7.10;99.90;;;;;;4999015;28;20030;-87
2022/04/10 08:29:29;;;;;;;3.40;1.35;;;7.20;99.90;;;;;;4981700;28;20037;-87
2022/04/10 08:31:55;;;;;;;8.95;1.75;;;7.30;99.90;;;;;;4981616;28;20034;-87
2022/04/10 08:34:20;;;;;;;4.22;1.65;;;7.40;99.90;;;;;;4998964;28;20026;-87
2022/04/10 08:36:46;;;;;;;5.95;1.60;;;7.50;99.90;;;;;;5015244;28;20022;-88
2022/04/10 08:39:13;;;;;;;5.20;2.10;;;7.50;99.90;;;;;;4982767;28;20386;-88
2022/04/10 08:41:38;;;;;;;5.03;1.95;;;7.60;99.90;;;;;;4982457;28;20064;-91
2022/04/10 08:44:05;;;;;;;8.90;2.28;;;7.70;99.90;;;;;;5014798;28;20062;-89
2022/04/10 08:46:33;;;;;;;5.97;2.35;;;7.80;99.90;;;;;;4998599;28;20026;-89
2022/04/10 08:48:59;;;;;;;5.38;1.70;;;7.90;99.90;;;;;;5007172;28;20029;-89
2022/04/10 08:51:27;;;;;;;6.40;1.50;;;8.00;99.90;;;;;;5034759;28;20029;-89
2022/04/10 08:53:56;;;;;;;6.80;1.67;;;8.10;99.90;;;;;;5034439;28;20486;-88
2022/04/10 08:56:23;;;;;;;5.53;1.40;;;8.20;99.90;;;;;;5034442;28;20030;-89
2022/04/10 08:58:51;;;;;;;8.85;1.70;;;8.30;99.90;;;;;;5035896;28;20021;-90
2022/04/10 09:01:22;;;;;;;11.90;3.25;;;8.30;99.90;;;;;;5001467;28;20052;-89
2022/04/10 09:03:48;;;;;;;4.75;1.27;;;8.40;99.90;;;;;;5034530;28;20026;-90
2022/04/10 09:06:14;;;;;;;6.63;1.65;;;8.50;99.90;;;;;;5034367;28;20029;-89
2022/04/10 09:08:41;;;;;;;6.82;2.63;;;8.60;99.90;;;;;;5034354;28;20519;-89
2022/04/10 09:11:08;;;;;;;7.40;1.50;;;8.60;99.90;;;;;;5017863;28;20026;-89
2022/04/10 09:13:36;;;;;;;7.45;1.42;;;8.70;99.90;;;;;;5034136;28;20447;-89
2022/04/10 09:16:19;;;;;;;4.68;1.30;;;8.80;99.90;;;;;;5017540;28;20044;-89
2022/04/10 09:19:01;;;;;;;7.25;1.35;;;8.90;99.90;;;;;;5034128;28;20468;-89
2022/04/10 09:21:29;;;;;;;5.40;1.30;;;9.00;99.90;;;;;;5034186;28;20033;-88
2022/04/10 09:24:12;;;;;;;5.45;1.60;;;9.10;99.90;;;;;;5033787;28;20108;-88
2022/04/10 09:26:47;;;;;;;4.95;1.58;;;9.20;99.90;;;;;;5033804;28;20025;-89
2022/04/10 09:29:13;;;;;;;5.90;1.30;;;9.40;99.90;;;;;;5032901;28;20025;-89
2022/04/10 09:31:39;;;;;;;4.82;1.08;;;9.40;99.90;;;;;;5017442;28;20061;-89
2022/04/10 09:34:10;;;;;;;4.80;1.30;;;9.50;99.90;;;;;;5017199;28;20025;-89
2022/04/10 09:36:40;;;;;;;4.53;1.50;;;9.60;99.90;;;;;;5017957;28;20029;-89
2022/04/10 09:39:16;;;;;;;6.95;1.55;;;9.70;99.90;;;;;;5033332;28;20039;-89
2022/04/10 09:41:45;;;;;;;2.50;1.48;;;9.80;99.90;;;;;;5033535;28;20021;-89
2022/04/10 09:44:20;;;;;;;6.22;1.48;;;9.90;99.90;;;;;;5017274;28;20022;-89
2022/04/10 09:47:03;;;;;;;5.95;1.27;;;10.00;99.90;;;;;;5033698;28;20112;-88
2022/04/10 09:49:34;;;;;;;4.47;1.20;;;10.10;99.90;;;;;;5034810;28;20025;-90
2022/04/10 09:52:00;;;;;;;7.65;1.67;;;10.10;99.90;;;;;;4996716;28;20041;-89
2022/04/10 09:54:35;;;;;;;3.67;1.40;;;10.20;99.90;;;;;;5017052;28;20116;-89
2022/04/10 09:57:16;;;;;;;5.30;1.23;;;10.30;99.90;;;;;;5033543;28;20053;-89
2022/04/10 09:59:45;;;;;;;6.22;1.23;;;10.30;99.90;;;;;;5017113;28;20025;-90
2022/04/10 10:02:15;;;;;;;7.15;1.58;;;10.40;99.90;;;;;;5034053;28;20076;-88
2022/04/10 10:04:42;;;;;;;8.45;1.73;;;10.40;99.90;;;;;;5034210;28;20018;-88
2022/04/10 10:07:10;;;;;;;4.75;1.33;;;10.40;99.90;;;;;;5033238;28;20028;-89
2022/04/10 10:09:37;;;;;;;4.93;1.20;;;10.50;99.90;;;;;;5029538;28;20554;-89
2022/04/10 10:12:04;;;;;;;6.07;1.58;;;10.60;99.90;;;;;;5030454;28;20033;-89
2022/04/10 10:14:31;;;;;;;2.63;1.10;;;10.60;99.90;;;;;;4997427;28;20033;-89
2022/04/10 10:16:59;;;;;;;5.72;1.10;;;10.70;99.90;;;;;;4997367;28;20061;-91
2022/04/10 10:19:26;;;;;;;5.25;1.15;;;10.80;99.90;;;;;;5013621;28;20022;-91
2022/04/10 10:21:53;;;;;;;5.78;1.50;;;10.90;99.90;;;;;;4997182;28;20030;-91
2022/04/10 10:24:22;;;;;;;4.88;1.50;;;11.00;99.90;;;;;;4997646;28;20026;-92
2022/04/10 10:27:25;;;;;;;7.32;1.20;;;11.10;99.90;;;;;;5013833;28;20054;-91
2022/04/10 10:30:24;;;;;;;5.65;1.30;;;11.20;99.90;;;;;;5013752;28;20161;-91
2022/04/10 10:32:56;;;;;;;5.40;1.33;;;11.30;99.90;;;;;;5013418;28;20022;-91
2022/04/10 10:35:34;;;;;;;3.78;1.00;;;11.40;99.90;;;;;;5013269;28;20057;-92
2022/04/10 10:38:00;;;;;;;6.00;1.65;;;11.40;99.90;;;;;;5013582;28;20022;-91
2022/04/10 10:40:26;;;;;;;5.28;1.00;;;11.50;99.90;;;;;;5015389;28;20018;-92
2022/04/10 10:42:58;;;;;;;5.13;1.30;;;11.50;99.90;;;;;;5000846;28;20033;-92
2022/04/10 10:45:38;;;;;;;2.47;1.08;;;11.50;99.90;;;;;;5017705;28;20097;-92
2022/04/10 10:48:31;;;;;;;7.05;0.98;;;11.60;99.90;;;;;;5001207;28;20034;-91
2022/04/10 10:51:09;;;;;;;4.45;1.40;;;11.70;99.90;;;;;;5017613;28;20017;-91
2022/04/10 10:53:57;;;;;;;5.57;1.10;;;11.70;99.90;;;;;;5017201;28;20084;-90
2022/04/10 10:56:38;;;;;;;2.58;1.00;;;11.80;99.90;;;;;;5017190;28;20113;-89
2022/04/10 10:59:23;;;;;;;;;;;11.90;99.90;;;;;;5017865;28;20029;-89
2022/04/10 11:01:58;;;;;;;4.60;1.13;;;12.00;99.90;;;;;;5018197;28;19996;-89
2022/04/10 11:04:28;;;;;;;4.07;1.08;;;12.00;99.90;;;;;;5018154;28;20073;-89
2022/04/10 11:06:54;;;;;;;5.90;0.98;;;12.00;99.90;;;;;;5017035;28;20032;-90
2022/04/10 11:09:23;;;;;;;1.63;0.57;;;12.10;99.90;;;;;;5000643;28;20080;-89
2022/04/10 11:11:50;;;;;;;2.38;0.75;;;12.10;99.90;;;;;;5016521;28;20520;-90
2022/04/10 11:14:34;;;;;;;2.33;0.60;;;12.10;99.90;;;;;;5016839;28;20099;-90
2022/04/10 11:17:17;;;;;;;3.38;0.70;;;12.20;99.90;;;;;;5017120;28;20032;-89
2022/04/10 11:19:47;;;;;;;3.17;1.02;;;12.30;99.90;;;;;;5016889;28;20057;-89
2022/04/10 11:22:18;;;;;;;3.45;1.02;;;12.50;99.90;;;;;;5017285;28;20563;-89
2022/04/10 11:24:45;;;;;;;4.10;1.00;;;12.60;99.60;;;;;;5004073;28;20030;-90
2022/04/10 11:27:14;;;;;;;3.83;1.27;;;12.80;99.90;;;;;;5016951;28;20025;-90
2022/04/10 11:30:03;;;;;;;4.78;0.93;;;12.90;99.50;;;;;;4999982;28;20029;-90
2022/04/10 11:32:50;;;;;;;5.80;1.02;;;13.00;98.00;;;;;;5003244;28;20493;-86
2022/04/10 11:35:27;;;;;;;4.93;1.23;;;13.10;98.90;;;;;;5018130;28;20083;-93
2022/04/10 11:38:02;;;;;;;3.50;1.05;;;13.20;99.90;;;;;;5024752;28;20072;-91
2022/04/10 11:40:33;;;;;;;3.75;0.80;;;13.40;98.80;;;;;;5016804;28;20041;-91
2022/04/10 11:42:59;;;;;;;;;;;13.50;97.10;;;;;;5017548;28;20070;-92
2022/04/10 11:45:29;;;;;;;5.40;1.23;;;13.50;96.30;;;;;;5016606;28;19912;-91
2022/04/10 11:47:55;;;;;;;3.45;1.13;;;13.50;96.20;;;;;;5016545;28;20026;-89
2022/04/10 11:50:22;;;;;;;5.93;1.48;;;13.50;97.20;;;;;;5000290;28;20473;-90
2022/04/10 11:53:08;;;;;;;3.90;1.00;;;13.60;97.40;;;;;;5015904;28;20083;-90
2022/04/10 11:55:48;;;;;;;3.47;0.82;;;13.70;96.40;;;;;;5018760;28;20168;-92
2022/04/10 11:58:18;;;;;;;2.88;0.75;;;13.80;97.20;;;;;;5018988;28;20021;-90
2022/04/10 12:00:52;;;;;;;6.05;1.23;;;13.90;97.60;;;;;;5016691;28;20029;-90
2022/04/10 12:03:22;;;;;;;2.60;1.10;;;13.90;97.30;;;;;;5016385;28;20026;-92
2022/04/10 12:05:48;;;;;;;3.27;1.37;;;14.00;96.80;;;;;;5016805;28;20049;-91
2022/04/10 12:08:14;;;;;;;4.13;1.20;;;14.00;97.00;;;;;;5017016;28;20457;-92
2022/04/10 12:10:41;;;;;;;6.28;1.60;;;14.00;96.80;;;;;;5002015;28;20129;-91
2022/04/10 12:13:09;;;;;;;4.40;1.52;;;14.00;96.00;;;;;;5015856;28;20061;-91
2022/04/10 12:15:35;;;;;;;4.22;1.75;;;14.00;95.80;;;;;;5000048;28;20052;-91
2022/04/10 12:18:09;;;;;;;8.85;2.97;;;13.90;93.80;;;;;;5015816;28;20025;-91
2022/04/10 12:20:37;;;;;;;6.82;2.20;;;13.90;92.20;;;;;;4999803;28;20018;-90
2022/04/10 12:23:24;;;;;;;5.53;1.50;;;14.00;93.80;;;;;;4999877;28;20036;-91
2022/04/10 12:25:51;;;;;;;3.70;1.67;;;14.00;91.00;;;;;;5016149;28;20109;-92
2022/04/10 12:28:19;;;;;;;2.78;1.00;;;14.10;93.00;;;;;;4999597;28;20116;-92
2022/04/10 12:30:46;;;;;;;3.70;1.40;;;14.20;93.60;;;;;;4999927;28;20041;-91
2022/04/10 12:33:12;;;;;;;4.20;1.33;;;14.30;94.90;;;;;;4999543;28;20470;-93
2022/04/10 12:35:39;;;;;;;5.93;1.30;;;14.50;94.30;;;;;;4999653;28;20033;-90
2022/04/10 12:38:06;;;;;;;3.17;1.00;;;14.60;93.40;;;;;;4999094;28;20072;-89
2022/04/10 12:40:32;;;;;;;6.70;1.10;;;14.70;93.50;;;;;;4999194;28;20048;-90
2022/04/10 12:43:05;;;;;;;3.65;1.02;;;14.90;94.80;;;;;;5015290;28;20026;-91
2022/04/10 12:45:33;;;;;;;4.22;1.50;;;15.00;93.00;;;;;;5021258;28;20033;-91
2022/04/10 12:47:59;;;;;;;4.32;1.13;;;15.10;91.50;;;;;;5007505;28;20029;-91
2022/04/10 12:50:27;;;;;;;4.78;1.20;;;15.20;90.80;;;;;;5005863;28;20034;-91
2022/04/10 12:52:57;;;;;;;3.63;1.08;;;15.20;90.60;;;;;;5000335;28;20501;-90
2022/04/10 12:55:26;;;;;;;3.58;1.20;;;15.20;83.20;;;;;;5018873;28;20032;-90
2022/04/10 12:57:52;;;;;;;6.25;1.30;;;15.20;81.50;;;;;;5025046;28;20036;-89